sensor_id;sensor_type;location;lat;lon;timestamp;P1;durP1;ratioP1;P2;durP2;ratioP2
58553;SDS011;48119;53.218;6.576;2023-06-24T00:02:06;10.02;;;7.57;;
58553;SDS011;48119;53.218;6.576;2023-06-24T00:04:32;9.48;;;7.20;;
58553;SDS011;48119;53.218;6.576;2023-06-24T00:06:58;9.27;;;7.07;;
58553;SDS011;48119;53.218;6.576;2023-06-24T00:09:28;9.93;;;6.90;;
58553;SDS011;48119;53.218;6.576;2023-06-24T00:11:55;8.82;;;7.57;;
58553;SDS011;48119;53.218;6.576;2023-06-24T00:14:21;13.35;;;7.90;;
58553;SDS011;48119;53.218;6.576;2023-06-24T00:16:52;11.00;;;8.23;;
58553;SDS011;48119;53.218;6.576;2023-06-24T00:19:20;12.13;;;8.63;;
58553;SDS011;48119;53.218;6.576;2023-06-24T00:21:46;16.85;;;11.90;;
58553;SDS011;48119;53.218;6.576;2023-06-24T00:24:16;18.63;;;13.43;;
58553;SDS011;48119;53.218;6.576;2023-06-24T00:26:42;11.88;;;9.75;;
58553;SDS011;48119;53.218;6.576;2023-06-24T00:29:08;13.85;;;9.00;;
58553;SDS011;48119;53.218;6.576;2023-06-24T00:31:34;10.95;;;8.40;;
58553;SDS011;48119;53.218;6.576;2023-06-24T00:34:00;15.27;;;9.63;;
58553;SDS011;48119;53.218;6.576;2023-06-24T00:36:26;10.60;;;8.57;;
58553;SDS011;48119;53.218;6.576;2023-06-24T00:38:51;9.88;;;8.50;;
58553;SDS011;48119;53.218;6.576;2023-06-24T00:41:17;12.07;;;8.55;;
58553;SDS011;48119;53.218;6.576;2023-06-24T00:43:44;12.30;;;8.10;;
58553;SDS011;48119;53.218;6.576;2023-06-24T00:46:10;12.63;;;8.63;;
58553;SDS011;48119;53.218;6.576;2023-06-24T00:48:36;13.25;;;9.38;;
58553;SDS011;48119;53.218;6.576;2023-06-24T00:51:02;12.13;;;8.93;;
58553;SDS011;48119;53.218;6.576;2023-06-24T00:53:27;12.65;;;9.60;;
58553;SDS011;48119;53.218;6.576;2023-06-24T00:55:53;11.68;;;8.63;;
58553;SDS011;48119;53.218;6.576;2023-06-24T00:58:21;10.85;;;8.50;;
58553;SDS011;48119;53.218;6.576;2023-06-24T01:00:47;14.13;;;8.80;;
58553;SDS011;48119;53.218;6.576;2023-06-24T01:03:22;12.43;;;8.38;;
58553;SDS011;48119;53.218;6.576;2023-06-24T01:05:50;10.90;;;8.75;;
58553;SDS011;48119;53.218;6.576;2023-06-24T01:08:17;11.90;;;8.70;;
58553;SDS011;48119;53.218;6.576;2023-06-24T01:10:44;10.65;;;8.38;;
58553;SDS011;48119;53.218;6.576;2023-06-24T01:13:12;12.30;;;9.23;;
58553;SDS011;48119;53.218;6.576;2023-06-24T01:15:38;12.45;;;8.07;;
58553;SDS011;48119;53.218;6.576;2023-06-24T01:18:07;12.48;;;8.40;;
58553;SDS011;48119;53.218;6.576;2023-06-24T01:37:08;9.07;;;7.07;;
58553;SDS011;48119;53.218;6.576;2023-06-24T01:39:47;10.07;;;7.57;;
58553;SDS011;48119;53.218;6.576;2023-06-24T01:42:17;9.15;;;7.28;;
58553;SDS011;48119;53.218;6.576;2023-06-24T01:44:47;15.85;;;9.20;;
58553;SDS011;48119;53.218;6.576;2023-06-24T01:47:14;11.93;;;9.38;;
58553;SDS011;48119;53.218;6.576;2023-06-24T01:49:48;11.90;;;9.75;;
58553;SDS011;48119;53.218;6.576;2023-06-24T01:52:17;13.32;;;10.48;;
58553;SDS011;48119;53.218;6.576;2023-06-24T01:54:45;15.88;;;9.93;;
58553;SDS011;48119;53.218;6.576;2023-06-24T01:57:14;12.23;;;10.55;;
58553;SDS011;48119;53.218;6.576;2023-06-24T01:59:42;11.60;;;8.82;;
58553;SDS011;48119;53.218;6.576;2023-06-24T02:02:10;12.00;;;9.25;;
58553;SDS011;48119;53.218;6.576;2023-06-24T02:04:37;16.85;;;9.48;;
58553;SDS011;48119;53.218;6.576;2023-06-24T02:07:05;10.15;;;7.85;;
58553;SDS011;48119;53.218;6.576;2023-06-24T02:09:32;10.07;;;8.45;;
58553;SDS011;48119;53.218;6.576;2023-06-24T02:12:00;12.70;;;8.50;;
58553;SDS011;48119;53.218;6.576;2023-06-24T02:14:28;9.90;;;8.25;;
58553;SDS011;48119;53.218;6.576;2023-06-24T02:16:55;15.30;;;8.82;;
58553;SDS011;48119;53.218;6.576;2023-06-24T02:19:24;13.07;;;9.23;;
58553;SDS011;48119;53.218;6.576;2023-06-24T02:21:54;13.80;;;9.75;;
58553;SDS011;48119;53.218;6.576;2023-06-24T02:24:21;12.85;;;9.75;;
58553;SDS011;48119;53.218;6.576;2023-06-24T02:26:48;13.30;;;9.88;;
58553;SDS011;48119;53.218;6.576;2023-06-24T02:29:15;15.80;;;10.93;;
58553;SDS011;48119;53.218;6.576;2023-06-24T02:31:42;14.48;;;9.90;;
58553;SDS011;48119;53.218;6.576;2023-06-24T02:34:08;16.45;;;9.63;;
58553;SDS011;48119;53.218;6.576;2023-06-24T02:36:34;13.52;;;10.63;;
58553;SDS011;48119;53.218;6.576;2023-06-24T02:39:00;15.73;;;10.88;;
58553;SDS011;48119;53.218;6.576;2023-06-24T02:41:26;14.00;;;9.77;;
58553;SDS011;48119;53.218;6.576;2023-06-24T02:43:52;14.98;;;10.32;;
58553;SDS011;48119;53.218;6.576;2023-06-24T02:46:17;16.27;;;10.00;;
58553;SDS011;48119;53.218;6.576;2023-06-24T02:48:46;14.80;;;10.60;;
58553;SDS011;48119;53.218;6.576;2023-06-24T02:51:13;14.88;;;10.98;;
58553;SDS011;48119;53.218;6.576;2023-06-24T02:53:39;14.88;;;10.85;;
58553;SDS011;48119;53.218;6.576;2023-06-24T02:56:06;13.70;;;9.85;;
58553;SDS011;48119;53.218;6.576;2023-06-24T02:58:33;16.35;;;11.05;;
58553;SDS011;48119;53.218;6.576;2023-06-24T03:01:03;15.55;;;11.85;;
58553;SDS011;48119;53.218;6.576;2023-06-24T03:03:32;19.45;;;13.02;;
58553;SDS011;48119;53.218;6.576;2023-06-24T03:05:58;18.08;;;12.82;;
58553;SDS011;48119;53.218;6.576;2023-06-24T03:08:24;17.67;;;12.25;;
58553;SDS011;48119;53.218;6.576;2023-06-24T03:10:54;15.85;;;11.60;;
58553;SDS011;48119;53.218;6.576;2023-06-24T03:13:21;13.45;;;11.20;;
58553;SDS011;48119;53.218;6.576;2023-06-24T03:15:47;17.50;;;11.55;;
58553;SDS011;48119;53.218;6.576;2023-06-24T03:18:13;14.40;;;10.57;;
58553;SDS011;48119;53.218;6.576;2023-06-24T03:20:38;14.10;;;10.35;;
58553;SDS011;48119;53.218;6.576;2023-06-24T03:23:07;14.80;;;9.40;;
58553;SDS011;48119;53.218;6.576;2023-06-24T03:25:34;13.02;;;9.70;;
58553;SDS011;48119;53.218;6.576;2023-06-24T03:28:00;13.60;;;9.98;;
58553;SDS011;48119;53.218;6.576;2023-06-24T03:30:28;11.40;;;8.90;;
58553;SDS011;48119;53.218;6.576;2023-06-24T03:32:55;14.00;;;8.82;;
58553;SDS011;48119;53.218;6.576;2023-06-24T03:35:21;12.18;;;9.35;;
58553;SDS011;48119;53.218;6.576;2023-06-24T03:37:47;13.38;;;8.45;;
58553;SDS011;48119;53.218;6.576;2023-06-24T03:40:13;13.32;;;9.52;;
58553;SDS011;48119;53.218;6.576;2023-06-24T03:42:39;12.00;;;9.20;;
58553;SDS011;48119;53.218;6.576;2023-06-24T03:45:05;13.95;;;8.82;;
58553;SDS011;48119;53.218;6.576;2023-06-24T03:47:31;11.25;;;9.25;;
58553;SDS011;48119;53.218;6.576;2023-06-24T03:49:57;13.52;;;9.57;;
58553;SDS011;48119;53.218;6.576;2023-06-24T03:52:22;10.95;;;8.05;;
58553;SDS011;48119;53.218;6.576;2023-06-24T03:54:48;12.40;;;8.70;;
58553;SDS011;48119;53.218;6.576;2023-06-24T03:57:14;11.32;;;8.98;;
58553;SDS011;48119;53.218;6.576;2023-06-24T03:59:40;14.52;;;8.15;;
58553;SDS011;48119;53.218;6.576;2023-06-24T04:02:06;9.98;;;8.02;;
58553;SDS011;48119;53.218;6.576;2023-06-24T04:04:35;11.73;;;8.50;;
58553;SDS011;48119;53.218;6.576;2023-06-24T04:07:01;12.15;;;7.68;;
58553;SDS011;48119;53.218;6.576;2023-06-24T04:09:29;9.55;;;7.05;;
58553;SDS011;48119;53.218;6.576;2023-06-24T04:11:55;15.07;;;7.78;;
58553;SDS011;48119;53.218;6.576;2023-06-24T04:14:20;8.45;;;6.90;;
58553;SDS011;48119;53.218;6.576;2023-06-24T04:16:46;10.63;;;7.13;;
58553;SDS011;48119;53.218;6.576;2023-06-24T04:19:12;12.40;;;7.90;;
58553;SDS011;48119;53.218;6.576;2023-06-24T04:21:37;11.15;;;6.85;;
58553;SDS011;48119;53.218;6.576;2023-06-24T04:24:03;9.73;;;7.05;;
58553;SDS011;48119;53.218;6.576;2023-06-24T04:26:30;12.90;;;6.60;;
58553;SDS011;48119;53.218;6.576;2023-06-24T04:28:56;9.27;;;6.68;;
58553;SDS011;48119;53.218;6.576;2023-06-24T04:31:21;9.63;;;6.28;;
58553;SDS011;48119;53.218;6.576;2023-06-24T04:33:47;12.95;;;7.55;;
58553;SDS011;48119;53.218;6.576;2023-06-24T04:36:13;9.85;;;6.93;;
58553;SDS011;48119;53.218;6.576;2023-06-24T04:38:39;8.95;;;6.68;;
58553;SDS011;48119;53.218;6.576;2023-06-24T04:41:05;16.08;;;8.32;;
58553;SDS011;48119;53.218;6.576;2023-06-24T04:43:31;9.57;;;7.10;;
58553;SDS011;48119;53.218;6.576;2023-06-24T04:45:56;10.57;;;7.03;;
58553;SDS011;48119;53.218;6.576;2023-06-24T04:48:22;8.45;;;6.28;;
58553;SDS011;48119;53.218;6.576;2023-06-24T04:50:49;8.52;;;6.20;;
58553;SDS011;48119;53.218;6.576;2023-06-24T04:53:15;9.63;;;6.53;;
58553;SDS011;48119;53.218;6.576;2023-06-24T04:55:41;10.40;;;7.10;;
58553;SDS011;48119;53.218;6.576;2023-06-24T04:58:06;7.50;;;6.43;;
58553;SDS011;48119;53.218;6.576;2023-06-24T05:00:32;10.02;;;6.80;;
58553;SDS011;48119;53.218;6.576;2023-06-24T05:02:58;8.48;;;7.07;;
58553;SDS011;48119;53.218;6.576;2023-06-24T05:05:24;9.40;;;6.97;;
58553;SDS011;48119;53.218;6.576;2023-06-24T05:07:50;8.32;;;7.10;;
58553;SDS011;48119;53.218;6.576;2023-06-24T05:10:16;11.07;;;7.60;;
58553;SDS011;48119;53.218;6.576;2023-06-24T05:12:41;9.88;;;7.55;;
58553;SDS011;48119;53.218;6.576;2023-06-24T05:15:07;11.13;;;7.18;;
58553;SDS011;48119;53.218;6.576;2023-06-24T05:17:33;10.93;;;7.65;;
58553;SDS011;48119;53.218;6.576;2023-06-24T05:19:59;8.57;;;7.68;;
58553;SDS011;48119;53.218;6.576;2023-06-24T05:22:25;10.85;;;7.68;;
58553;SDS011;48119;53.218;6.576;2023-06-24T05:24:50;10.18;;;8.20;;
58553;SDS011;48119;53.218;6.576;2023-06-24T05:27:16;10.32;;;7.65;;
58553;SDS011;48119;53.218;6.576;2023-06-24T05:29:42;10.23;;;8.10;;
58553;SDS011;48119;53.218;6.576;2023-06-24T05:32:08;10.80;;;7.45;;
58553;SDS011;48119;53.218;6.576;2023-06-24T05:34:34;10.48;;;7.95;;
58553;SDS011;48119;53.218;6.576;2023-06-24T05:37:00;10.05;;;7.53;;
58553;SDS011;48119;53.218;6.576;2023-06-24T05:39:26;10.82;;;8.55;;
58553;SDS011;48119;53.218;6.576;2023-06-24T05:41:52;10.05;;;7.95;;
58553;SDS011;48119;53.218;6.576;2023-06-24T05:44:17;9.60;;;7.80;;
58553;SDS011;48119;53.218;6.576;2023-06-24T05:46:45;8.45;;;7.55;;
58553;SDS011;48119;53.218;6.576;2023-06-24T05:49:10;13.43;;;7.03;;
58553;SDS011;48119;53.218;6.576;2023-06-24T05:51:36;10.70;;;7.35;;
58553;SDS011;48119;53.218;6.576;2023-06-24T05:54:02;10.82;;;7.20;;
58553;SDS011;48119;53.218;6.576;2023-06-24T05:56:28;10.98;;;7.15;;
58553;SDS011;48119;53.218;6.576;2023-06-24T05:58:55;9.98;;;7.78;;
58553;SDS011;48119;53.218;6.576;2023-06-24T06:01:21;12.75;;;8.15;;
58553;SDS011;48119;53.218;6.576;2023-06-24T06:03:49;11.35;;;7.47;;
58553;SDS011;48119;53.218;6.576;2023-06-24T06:06:15;9.30;;;7.53;;
58553;SDS011;48119;53.218;6.576;2023-06-24T06:08:40;10.23;;;7.32;;
58553;SDS011;48119;53.218;6.576;2023-06-24T06:11:06;10.27;;;7.03;;
58553;SDS011;48119;53.218;6.576;2023-06-24T06:13:32;11.77;;;7.07;;
58553;SDS011;48119;53.218;6.576;2023-06-24T06:15:58;10.40;;;7.22;;
58553;SDS011;48119;53.218;6.576;2023-06-24T06:18:24;10.23;;;6.75;;
58553;SDS011;48119;53.218;6.576;2023-06-24T06:20:50;11.10;;;6.68;;
58553;SDS011;48119;53.218;6.576;2023-06-24T06:23:16;10.32;;;7.70;;
58553;SDS011;48119;53.218;6.576;2023-06-24T06:25:42;15.23;;;7.95;;
58553;SDS011;48119;53.218;6.576;2023-06-24T06:28:08;9.68;;;7.70;;
58553;SDS011;48119;53.218;6.576;2023-06-24T06:30:34;9.95;;;7.70;;
58553;SDS011;48119;53.218;6.576;2023-06-24T06:33:00;12.35;;;7.63;;
58553;SDS011;48119;53.218;6.576;2023-06-24T06:35:25;8.82;;;7.18;;
58553;SDS011;48119;53.218;6.576;2023-06-24T06:37:51;15.18;;;8.23;;
58553;SDS011;48119;53.218;6.576;2023-06-24T06:40:19;10.80;;;7.95;;
58553;SDS011;48119;53.218;6.576;2023-06-24T06:42:45;12.20;;;8.35;;
58553;SDS011;48119;53.218;6.576;2023-06-24T06:45:11;9.50;;;7.88;;
58553;SDS011;48119;53.218;6.576;2023-06-24T06:47:37;10.25;;;6.60;;
58553;SDS011;48119;53.218;6.576;2023-06-24T06:50:03;9.02;;;7.93;;
58553;SDS011;48119;53.218;6.576;2023-06-24T06:52:29;9.18;;;7.25;;
58553;SDS011;48119;53.218;6.576;2023-06-24T06:54:55;9.75;;;7.10;;
58553;SDS011;48119;53.218;6.576;2023-06-24T06:57:22;11.63;;;7.80;;
58553;SDS011;48119;53.218;6.576;2023-06-24T06:59:47;12.95;;;8.10;;
58553;SDS011;48119;53.218;6.576;2023-06-24T07:02:16;11.07;;;8.00;;
58553;SDS011;48119;53.218;6.576;2023-06-24T07:04:42;14.23;;;7.65;;
58553;SDS011;48119;53.218;6.576;2023-06-24T07:07:08;10.32;;;7.95;;
58553;SDS011;48119;53.218;6.576;2023-06-24T07:09:34;10.95;;;7.90;;
58553;SDS011;48119;53.218;6.576;2023-06-24T07:12:00;9.55;;;6.85;;
58553;SDS011;48119;53.218;6.576;2023-06-24T07:14:26;11.63;;;7.90;;
58553;SDS011;48119;53.218;6.576;2023-06-24T07:16:52;9.95;;;7.50;;
58553;SDS011;48119;53.218;6.576;2023-06-24T07:19:18;10.02;;;8.20;;
58553;SDS011;48119;53.218;6.576;2023-06-24T07:21:44;9.57;;;7.47;;
58553;SDS011;48119;53.218;6.576;2023-06-24T07:24:09;12.85;;;8.02;;
58553;SDS011;48119;53.218;6.576;2023-06-24T07:26:35;12.00;;;7.95;;
58553;SDS011;48119;53.218;6.576;2023-06-24T07:29:01;12.02;;;7.90;;
58553;SDS011;48119;53.218;6.576;2023-06-24T07:31:27;10.55;;;7.65;;
58553;SDS011;48119;53.218;6.576;2023-06-24T07:33:53;10.93;;;7.35;;
58553;SDS011;48119;53.218;6.576;2023-06-24T07:36:18;9.68;;;6.38;;
58553;SDS011;48119;53.218;6.576;2023-06-24T07:38:44;7.38;;;6.05;;
58553;SDS011;48119;53.218;6.576;2023-06-24T07:41:10;11.25;;;7.93;;
58553;SDS011;48119;53.218;6.576;2023-06-24T07:43:36;9.32;;;6.72;;
58553;SDS011;48119;53.218;6.576;2023-06-24T07:46:02;8.65;;;7.22;;
58553;SDS011;48119;53.218;6.576;2023-06-24T07:48:28;8.55;;;6.45;;
58553;SDS011;48119;53.218;6.576;2023-06-24T07:50:53;9.13;;;6.15;;
58553;SDS011;48119;53.218;6.576;2023-06-24T07:53:19;9.27;;;7.07;;
58553;SDS011;48119;53.218;6.576;2023-06-24T07:55:45;8.77;;;5.70;;
58553;SDS011;48119;53.218;6.576;2023-06-24T07:58:12;9.60;;;6.03;;
58553;SDS011;48119;53.218;6.576;2023-06-24T08:00:38;12.35;;;6.40;;
58553;SDS011;48119;53.218;6.576;2023-06-24T08:03:03;7.18;;;5.63;;
58553;SDS011;48119;53.218;6.576;2023-06-24T08:05:29;7.63;;;5.60;;
58553;SDS011;48119;53.218;6.576;2023-06-24T08:07:55;10.30;;;6.47;;
58553;SDS011;48119;53.218;6.576;2023-06-24T08:10:21;6.68;;;5.13;;
58553;SDS011;48119;53.218;6.576;2023-06-24T08:12:47;10.90;;;6.05;;
58553;SDS011;48119;53.218;6.576;2023-06-24T08:15:12;8.93;;;5.40;;
58553;SDS011;48119;53.218;6.576;2023-06-24T08:17:38;6.80;;;4.63;;
58553;SDS011;48119;53.218;6.576;2023-06-24T08:20:04;7.53;;;4.55;;
58553;SDS011;48119;53.218;6.576;2023-06-24T08:22:36;8.32;;;6.25;;
58553;SDS011;48119;53.218;6.576;2023-06-24T08:25:02;8.63;;;5.63;;
58553;SDS011;48119;53.218;6.576;2023-06-24T08:27:28;9.30;;;5.70;;
58553;SDS011;48119;53.218;6.576;2023-06-24T08:29:56;7.70;;;5.50;;
58553;SDS011;48119;53.218;6.576;2023-06-24T08:32:22;8.05;;;4.88;;
58553;SDS011;48119;53.218;6.576;2023-06-24T08:34:48;7.10;;;5.15;;
58553;SDS011;48119;53.218;6.576;2023-06-24T08:37:13;8.80;;;5.78;;
58553;SDS011;48119;53.218;6.576;2023-06-24T08:39:39;9.27;;;5.22;;
58553;SDS011;48119;53.218;6.576;2023-06-24T08:42:05;7.28;;;5.78;;
58553;SDS011;48119;53.218;6.576;2023-06-24T08:44:31;7.57;;;4.50;;
58553;SDS011;48119;53.218;6.576;2023-06-24T08:46:56;7.90;;;4.97;;
58553;SDS011;48119;53.218;6.576;2023-06-24T08:51:58;12.05;;;5.65;;
58553;SDS011;48119;53.218;6.576;2023-06-24T08:54:25;6.82;;;4.90;;
58553;SDS011;48119;53.218;6.576;2023-06-24T08:56:51;7.93;;;5.32;;
58553;SDS011;48119;53.218;6.576;2023-06-24T08:59:18;7.32;;;5.13;;
58553;SDS011;48119;53.218;6.576;2023-06-24T09:01:49;8.40;;;5.47;;
58553;SDS011;48119;53.218;6.576;2023-06-24T09:04:15;9.05;;;6.03;;
58553;SDS011;48119;53.218;6.576;2023-06-24T09:06:41;6.57;;;4.70;;
58553;SDS011;48119;53.218;6.576;2023-06-24T09:09:19;7.53;;;5.07;;
58553;SDS011;48119;53.218;6.576;2023-06-24T09:11:53;6.88;;;5.13;;
58553;SDS011;48119;53.218;6.576;2023-06-24T09:14:26;6.65;;;5.40;;
58553;SDS011;48119;53.218;6.576;2023-06-24T09:16:55;8.90;;;5.25;;
58553;SDS011;48119;53.218;6.576;2023-06-24T09:19:22;10.40;;;5.25;;
58553;SDS011;48119;53.218;6.576;2023-06-24T09:21:49;8.45;;;4.68;;
58553;SDS011;48119;53.218;6.576;2023-06-24T09:24:16;7.47;;;4.75;;
58553;SDS011;48119;53.218;6.576;2023-06-24T09:26:43;6.78;;;5.00;;
58553;SDS011;48119;53.218;6.576;2023-06-24T09:29:11;10.27;;;5.53;;
58553;SDS011;48119;53.218;6.576;2023-06-24T09:31:47;9.57;;;4.97;;
58553;SDS011;48119;53.218;6.576;2023-06-24T09:34:21;9.52;;;6.22;;
58553;SDS011;48119;53.218;6.576;2023-06-24T09:36:51;10.57;;;5.00;;
58553;SDS011;48119;53.218;6.576;2023-06-24T09:39:18;7.28;;;5.05;;
58553;SDS011;48119;53.218;6.576;2023-06-24T09:41:53;12.57;;;5.88;;
58553;SDS011;48119;53.218;6.576;2023-06-24T09:44:20;7.68;;;5.43;;
58553;SDS011;48119;53.218;6.576;2023-06-24T09:46:46;7.35;;;5.40;;
58553;SDS011;48119;53.218;6.576;2023-06-24T09:49:12;8.45;;;5.60;;
58553;SDS011;48119;53.218;6.576;2023-06-24T09:51:40;7.90;;;5.93;;
58553;SDS011;48119;53.218;6.576;2023-06-24T09:54:09;6.57;;;4.60;;
58553;SDS011;48119;53.218;6.576;2023-06-24T09:56:36;6.75;;;5.13;;
58553;SDS011;48119;53.218;6.576;2023-06-24T09:59:03;5.80;;;4.75;;
58553;SDS011;48119;53.218;6.576;2023-06-24T10:01:31;7.63;;;5.10;;
58553;SDS011;48119;53.218;6.576;2023-06-24T10:03:57;9.95;;;4.47;;
58553;SDS011;48119;53.218;6.576;2023-06-24T10:06:27;6.65;;;4.40;;
58553;SDS011;48119;53.218;6.576;2023-06-24T10:08:55;6.30;;;4.70;;
58553;SDS011;48119;53.218;6.576;2023-06-24T10:11:21;7.70;;;4.05;;
58553;SDS011;48119;53.218;6.576;2023-06-24T10:13:47;9.55;;;4.88;;
58553;SDS011;48119;53.218;6.576;2023-06-24T10:16:13;7.35;;;4.45;;
58553;SDS011;48119;53.218;6.576;2023-06-24T10:18:40;8.68;;;5.03;;
58553;SDS011;48119;53.218;6.576;2023-06-24T10:21:08;6.85;;;4.20;;
58553;SDS011;48119;53.218;6.576;2023-06-24T10:26:28;5.32;;;4.10;;
58553;SDS011;48119;53.218;6.576;2023-06-24T10:32:12;6.28;;;3.88;;
58553;SDS011;48119;53.218;6.576;2023-06-24T10:37:01;5.68;;;3.85;;
58553;SDS011;48119;53.218;6.576;2023-06-24T10:44:52;5.43;;;3.90;;
58553;SDS011;48119;53.218;6.576;2023-06-24T10:47:21;5.07;;;3.60;;
58553;SDS011;48119;53.218;6.576;2023-06-24T10:49:48;5.18;;;3.92;;
58553;SDS011;48119;53.218;6.576;2023-06-24T10:52:13;10.38;;;4.45;;
58553;SDS011;48119;53.218;6.576;2023-06-24T10:54:40;4.22;;;3.38;;
58553;SDS011;48119;53.218;6.576;2023-06-24T10:57:11;6.75;;;3.83;;
58553;SDS011;48119;53.218;6.576;2023-06-24T10:59:41;8.50;;;4.78;;
58553;SDS011;48119;53.218;6.576;2023-06-24T11:02:08;5.43;;;3.92;;
58553;SDS011;48119;53.218;6.576;2023-06-24T11:07:10;7.00;;;5.00;;
58553;SDS011;48119;53.218;6.576;2023-06-24T11:09:36;9.82;;;4.68;;
58553;SDS011;48119;53.218;6.576;2023-06-24T11:12:02;9.73;;;4.90;;
58553;SDS011;48119;53.218;6.576;2023-06-24T11:14:28;7.07;;;4.72;;
58553;SDS011;48119;53.218;6.576;2023-06-24T11:16:54;6.70;;;4.50;;
58553;SDS011;48119;53.218;6.576;2023-06-24T11:19:20;6.35;;;4.55;;
58553;SDS011;48119;53.218;6.576;2023-06-24T11:21:45;5.47;;;4.72;;
58553;SDS011;48119;53.218;6.576;2023-06-24T11:24:11;7.43;;;5.50;;
58553;SDS011;48119;53.218;6.576;2023-06-24T11:26:38;4.40;;;3.53;;
58553;SDS011;48119;53.218;6.576;2023-06-24T11:29:13;7.57;;;4.78;;
58553;SDS011;48119;53.218;6.576;2023-06-24T11:31:38;8.85;;;4.15;;
58553;SDS011;48119;53.218;6.576;2023-06-24T11:34:04;6.40;;;5.05;;
58553;SDS011;48119;53.218;6.576;2023-06-24T11:36:30;10.02;;;5.68;;
58553;SDS011;48119;53.218;6.576;2023-06-24T11:38:59;12.90;;;5.18;;
58553;SDS011;48119;53.218;6.576;2023-06-24T11:41:25;8.35;;;4.38;;
58553;SDS011;48119;53.218;6.576;2023-06-24T11:43:52;8.40;;;6.20;;
58553;SDS011;48119;53.218;6.576;2023-06-24T11:46:25;7.60;;;4.50;;
58553;SDS011;48119;53.218;6.576;2023-06-24T11:48:52;6.32;;;4.93;;
58553;SDS011;48119;53.218;6.576;2023-06-24T11:51:18;9.88;;;4.60;;
58553;SDS011;48119;53.218;6.576;2023-06-24T11:53:45;7.72;;;4.82;;
58553;SDS011;48119;53.218;6.576;2023-06-24T11:56:11;6.18;;;4.47;;
58553;SDS011;48119;53.218;6.576;2023-06-24T11:58:37;8.57;;;5.57;;
58553;SDS011;48119;53.218;6.576;2023-06-24T12:01:03;10.40;;;6.85;;
58553;SDS011;48119;53.218;6.576;2023-06-24T12:03:32;6.53;;;4.70;;
58553;SDS011;48119;53.218;6.576;2023-06-24T12:05:59;7.35;;;4.53;;
58553;SDS011;48119;53.218;6.576;2023-06-24T12:08:24;8.27;;;4.72;;
58553;SDS011;48119;53.218;6.576;2023-06-24T12:10:51;8.70;;;7.07;;
58553;SDS011;48119;53.218;6.576;2023-06-24T12:13:17;6.72;;;5.20;;
58553;SDS011;48119;53.218;6.576;2023-06-24T12:15:43;40.78;;;28.80;;
58553;SDS011;48119;53.218;6.576;2023-06-24T12:18:09;6.28;;;5.00;;
58553;SDS011;48119;53.218;6.576;2023-06-24T12:20:36;6.35;;;3.65;;
58553;SDS011;48119;53.218;6.576;2023-06-24T12:23:02;8.00;;;4.25;;
58553;SDS011;48119;53.218;6.576;2023-06-24T12:25:28;44.63;;;10.13;;
58553;SDS011;48119;53.218;6.576;2023-06-24T12:27:54;243.88;;;22.85;;
58553;SDS011;48119;53.218;6.576;2023-06-24T12:30:20;10.10;;;4.18;;
58553;SDS011;48119;53.218;6.576;2023-06-24T12:32:49;13.45;;;8.48;;
58553;SDS011;48119;53.218;6.576;2023-06-24T12:35:17;9.75;;;6.13;;
58553;SDS011;48119;53.218;6.576;2023-06-24T12:37:46;5.93;;;4.03;;
58553;SDS011;48119;53.218;6.576;2023-06-24T12:40:12;6.43;;;3.85;;
58553;SDS011;48119;53.218;6.576;2023-06-24T12:42:43;8.25;;;4.25;;
58553;SDS011;48119;53.218;6.576;2023-06-24T12:45:09;6.90;;;3.80;;
58553;SDS011;48119;53.218;6.576;2023-06-24T12:47:35;8.88;;;4.10;;
58553;SDS011;48119;53.218;6.576;2023-06-24T12:50:01;4.72;;;3.55;;
58553;SDS011;48119;53.218;6.576;2023-06-24T12:52:31;8.73;;;4.45;;
58553;SDS011;48119;53.218;6.576;2023-06-24T12:54:57;6.30;;;4.05;;
58553;SDS011;48119;53.218;6.576;2023-06-24T12:57:23;4.93;;;4.18;;
58553;SDS011;48119;53.218;6.576;2023-06-24T12:59:48;6.00;;;3.72;;
58553;SDS011;48119;53.218;6.576;2023-06-24T13:02:14;4.65;;;3.55;;
58553;SDS011;48119;53.218;6.576;2023-06-24T13:04:40;6.38;;;4.32;;
58553;SDS011;48119;53.218;6.576;2023-06-24T13:07:07;9.35;;;5.20;;
58553;SDS011;48119;53.218;6.576;2023-06-24T13:09:34;13.75;;;4.30;;
58553;SDS011;48119;53.218;6.576;2023-06-24T13:12:00;8.57;;;4.53;;
58553;SDS011;48119;53.218;6.576;2023-06-24T13:14:26;6.38;;;3.30;;
58553;SDS011;48119;53.218;6.576;2023-06-24T13:16:53;4.38;;;3.67;;
58553;SDS011;48119;53.218;6.576;2023-06-24T13:19:20;6.93;;;4.10;;
58553;SDS011;48119;53.218;6.576;2023-06-24T13:21:46;9.40;;;6.05;;
58553;SDS011;48119;53.218;6.576;2023-06-24T13:24:12;12.68;;;7.18;;
58553;SDS011;48119;53.218;6.576;2023-06-24T13:26:38;8.10;;;4.35;;
58553;SDS011;48119;53.218;6.576;2023-06-24T13:29:04;7.15;;;4.03;;
58553;SDS011;48119;53.218;6.576;2023-06-24T13:31:29;5.00;;;3.28;;
58553;SDS011;48119;53.218;6.576;2023-06-24T13:33:55;6.78;;;4.35;;
58553;SDS011;48119;53.218;6.576;2023-06-24T13:36:29;6.38;;;4.13;;
58553;SDS011;48119;53.218;6.576;2023-06-24T13:38:57;7.28;;;4.55;;
58553;SDS011;48119;53.218;6.576;2023-06-24T13:41:23;7.38;;;4.10;;
58553;SDS011;48119;53.218;6.576;2023-06-24T13:43:51;7.60;;;4.22;;
58553;SDS011;48119;53.218;6.576;2023-06-24T13:46:16;6.35;;;4.70;;
58553;SDS011;48119;53.218;6.576;2023-06-24T13:48:42;7.28;;;4.93;;
58553;SDS011;48119;53.218;6.576;2023-06-24T13:51:08;5.53;;;3.80;;
58553;SDS011;48119;53.218;6.576;2023-06-24T13:53:34;5.38;;;3.55;;
58553;SDS011;48119;53.218;6.576;2023-06-24T13:56:00;6.35;;;3.58;;
58553;SDS011;48119;53.218;6.576;2023-06-24T13:58:25;5.38;;;3.58;;
58553;SDS011;48119;53.218;6.576;2023-06-24T14:00:51;7.22;;;3.17;;
58553;SDS011;48119;53.218;6.576;2023-06-24T14:03:17;7.13;;;3.65;;
58553;SDS011;48119;53.218;6.576;2023-06-24T14:05:42;6.28;;;3.80;;
58553;SDS011;48119;53.218;6.576;2023-06-24T14:08:08;6.03;;;3.28;;
58553;SDS011;48119;53.218;6.576;2023-06-24T14:10:34;3.92;;;2.90;;
58553;SDS011;48119;53.218;6.576;2023-06-24T14:13:00;4.82;;;2.67;;
58553;SDS011;48119;53.218;6.576;2023-06-24T14:15:26;3.63;;;2.80;;
58553;SDS011;48119;53.218;6.576;2023-06-24T14:17:51;4.75;;;3.08;;
58553;SDS011;48119;53.218;6.576;2023-06-24T14:20:17;5.22;;;2.88;;
58553;SDS011;48119;53.218;6.576;2023-06-24T14:22:43;4.60;;;3.13;;
58553;SDS011;48119;53.218;6.576;2023-06-24T14:25:09;3.95;;;2.95;;
58553;SDS011;48119;53.218;6.576;2023-06-24T14:27:36;6.00;;;2.97;;
58553;SDS011;48119;53.218;6.576;2023-06-24T14:30:04;6.80;;;3.30;;
58553;SDS011;48119;53.218;6.576;2023-06-24T14:32:30;6.78;;;3.00;;
58553;SDS011;48119;53.218;6.576;2023-06-24T14:34:56;4.80;;;2.63;;
58553;SDS011;48119;53.218;6.576;2023-06-24T14:37:22;6.05;;;3.05;;
58553;SDS011;48119;53.218;6.576;2023-06-24T14:39:50;4.38;;;3.10;;
58553;SDS011;48119;53.218;6.576;2023-06-24T14:42:16;9.35;;;3.42;;
58553;SDS011;48119;53.218;6.576;2023-06-24T14:44:42;7.95;;;3.92;;
58553;SDS011;48119;53.218;6.576;2023-06-24T14:47:07;5.28;;;3.42;;
58553;SDS011;48119;53.218;6.576;2023-06-24T14:49:33;4.20;;;3.20;;
58553;SDS011;48119;53.218;6.576;2023-06-24T14:51:59;8.95;;;4.20;;
58553;SDS011;48119;53.218;6.576;2023-06-24T14:54:24;9.98;;;4.55;;
58553;SDS011;48119;53.218;6.576;2023-06-24T14:56:50;7.00;;;4.72;;
58553;SDS011;48119;53.218;6.576;2023-06-24T14:59:16;6.03;;;4.25;;
58553;SDS011;48119;53.218;6.576;2023-06-24T15:01:41;7.28;;;4.53;;
58553;SDS011;48119;53.218;6.576;2023-06-24T15:04:08;10.38;;;4.47;;
58553;SDS011;48119;53.218;6.576;2023-06-24T15:06:34;7.75;;;4.13;;
58553;SDS011;48119;53.218;6.576;2023-06-24T15:08:59;6.13;;;3.85;;
58553;SDS011;48119;53.218;6.576;2023-06-24T15:11:25;7.30;;;4.00;;
58553;SDS011;48119;53.218;6.576;2023-06-24T15:13:54;6.70;;;3.22;;